Time;durP1;ratioP1;P1;durP2;ratioP2;P2;SDS_P1;SDS_P2;PMS_P1;PMS_P2;Temp;Humidity;BMP_temperature;BMP_pressure;BME280_temperature;BME280_humidity;BME280_pressure;Samples;Min_cycle;Max_cycle;Signal;HPM_P1;HPM_P2
2022/08/05 00:01:02;;;;;;;3.78;1.70;;;21.20;99.90;;;;;;5094384;28;20122;-45
2022/08/05 00:03:27;;;;;;;3.38;1.40;;;21.20;99.90;;;;;;5105658;28;20024;-43
2022/08/05 00:05:53;;;;;;;3.78;1.70;;;21.20;99.90;;;;;;5105313;28;20023;-44
2022/08/05 00:08:18;;;;;;;2.70;1.58;;;21.20;99.90;;;;;;5104958;28;20784;-44
2022/08/05 00:10:44;;;;;;;2.13;1.20;;;21.20;99.90;;;;;;5104857;28;20016;-45
2022/08/05 00:13:10;;;;;;;3.22;1.50;;;21.10;99.90;;;;;;5105998;28;20024;-44
2022/08/05 00:15:36;;;;;;;2.35;1.50;;;21.10;99.90;;;;;;5104359;28;20483;-44
2022/08/05 00:18:01;;;;;;;2.88;1.70;;;21.10;99.90;;;;;;5105111;28;20024;-44
2022/08/05 00:20:27;;;;;;;3.60;1.52;;;21.10;99.90;;;;;;5105612;28;20023;-44
2022/08/05 00:22:52;;;;;;;1.67;1.40;;;21.10;99.90;;;;;;5104411;28;20023;-44
2022/08/05 00:25:18;;;;;;;4.07;1.70;;;21.10;99.90;;;;;;5106189;28;20027;-44
2022/08/05 00:27:43;;;;;;;2.28;1.48;;;21.10;99.90;;;;;;5104684;28;20047;-43
2022/08/05 00:30:09;;;;;;;3.50;1.90;;;21.10;99.90;;;;;;5104955;28;20057;-44
2022/08/05 00:32:35;;;;;;;2.80;1.42;;;21.00;99.90;;;;;;5104661;28;20020;-43
2022/08/05 00:35:00;;;;;;;2.65;1.75;;;21.00;99.90;;;;;;5105479;28;20177;-43
2022/08/05 00:37:26;;;;;;;3.05;1.88;;;20.90;99.90;;;;;;5104141;28;20476;-43
2022/08/05 00:39:51;;;;;;;2.20;1.83;;;20.90;99.90;;;;;;5109096;28;20359;-42
2022/08/05 00:42:33;;;;;;;1.83;1.30;;;20.90;99.90;;;;;;5109311;28;20026;-43
2022/08/05 00:44:59;;;;;;;1.92;1.35;;;20.80;99.90;;;;;;5108498;28;20039;-43
2022/08/05 00:47:25;;;;;;;4.13;1.98;;;20.80;99.90;;;;;;5108678;28;20030;-45
2022/08/05 00:49:50;;;;;;;1.90;1.50;;;20.70;99.90;;;;;;5108389;28;20027;-44
2022/08/05 00:52:16;;;;;;;1.92;1.50;;;20.70;99.90;;;;;;5109632;28;20023;-43
2022/08/05 00:54:41;;;;;;;3.13;1.73;;;20.70;99.90;;;;;;5108782;28;20091;-44
2022/08/05 00:57:07;;;;;;;3.45;2.00;;;20.70;99.90;;;;;;5107826;28;20113;-44
2022/08/05 00:59:33;;;;;;;4.35;2.30;;;20.70;99.90;;;;;;5108720;28;20110;-43
2022/08/05 01:01:58;;;;;;;3.92;2.80;;;20.60;99.90;;;;;;5108733;28;20038;-44
2022/08/05 01:04:24;;;;;;;4.05;1.95;;;20.60;99.90;;;;;;5108080;28;20022;-44
2022/08/05 01:06:49;;;;;;;3.15;2.03;;;20.60;99.90;;;;;;5108234;28;20039;-43
2022/08/05 01:09:15;;;;;;;3.25;2.15;;;20.60;99.90;;;;;;5108137;28;20024;-43
2022/08/05 01:11:42;;;;;;;3.75;2.13;;;20.60;99.90;;;;;;5107751;28;20028;-45
2022/08/05 01:14:21;;;;;;;3.10;1.80;;;20.50;99.90;;;;;;5108752;28;20034;-43
2022/08/05 01:17:01;;;;;;;4.05;2.22;;;20.60;99.90;;;;;;5087573;28;20043;-45
2022/08/05 01:19:42;;;;;;;2.60;1.90;;;20.50;99.90;;;;;;5104094;28;20471;-44
2022/08/05 01:22:24;;;;;;;3.55;2.00;;;20.50;99.90;;;;;;5108256;28;20063;-43
2022/08/05 01:25:08;;;;;;;;;;;20.50;99.90;;;;;;5107699;28;20478;-44
2022/08/05 01:27:59;;;;;;;4.00;2.03;;;20.50;99.90;;;;;;5107614;28;20464;-43
2022/08/05 01:30:29;;;;;;;3.60;1.73;;;20.50;99.90;;;;;;5104561;28;20024;-44
2022/08/05 01:32:57;;;;;;;3.10;1.75;;;20.50;99.90;;;;;;5107559;28;20096;-44
2022/08/05 01:35:27;;;;;;;1.60;1.50;;;20.40;99.90;;;;;;5107876;28;20098;-43
2022/08/05 01:37:55;;;;;;;3.65;1.90;;;20.50;99.90;;;;;;5107986;28;20019;-44
2022/08/05 01:40:25;;;;;;;4.85;1.75;;;20.40;99.90;;;;;;5107006;28;20051;-44
2022/08/05 01:42:52;;;;;;;3.08;1.67;;;20.40;99.90;;;;;;5108651;28;20130;-43
2022/08/05 01:45:19;;;;;;;4.30;2.10;;;20.40;99.90;;;;;;5108282;28;20024;-44
2022/08/05 01:47:47;;;;;;;5.45;1.90;;;20.40;99.90;;;;;;5106876;28;20449;-44
2022/08/05 01:50:42;;;;;;;3.08;1.70;;;20.40;99.90;;;;;;5107630;28;20039;-42
2022/08/05 01:53:12;;;;;;;3.15;1.80;;;20.50;99.90;;;;;;5069507;28;20032;-43
2022/08/05 01:55:39;;;;;;;2.72;1.90;;;20.40;99.90;;;;;;5104116;28;20039;-44
2022/08/05 01:58:07;;;;;;;4.65;1.95;;;20.50;99.90;;;;;;5102491;28;20047;-44
2022/08/05 02:00:36;;;;;;;3.92;1.90;;;20.40;99.90;;;;;;5106214;28;20023;-43
2022/08/05 02:03:12;;;;;;;3.13;1.90;;;20.40;99.90;;;;;;5107256;28;20031;-44
2022/08/05 02:05:40;;;;;;;3.20;1.90;;;20.40;99.90;;;;;;5107261;28;20033;-44
2022/08/05 02:08:05;;;;;;;4.35;2.58;;;20.40;99.90;;;;;;5106686;28;20535;-43
2022/08/05 02:10:43;;;;;;;3.00;1.88;;;20.40;99.90;;;;;;5106580;28;20011;-43
2022/08/05 02:13:33;;;;;;;3.05;1.95;;;20.50;99.90;;;;;;5107292;28;20024;-44
2022/08/05 02:16:21;;;;;;;1.90;1.70;;;20.50;99.90;;;;;;5106318;28;20043;-44
2022/08/05 02:18:58;;;;;;;3.92;2.05;;;20.50;99.90;;;;;;5086506;28;20062;-44
2022/08/05 02:21:52;;;;;;;6.03;2.28;;;20.50;99.90;;;;;;5102167;28;20379;-43
2022/08/05 02:24:21;;;;;;;3.42;1.75;;;20.50;99.90;;;;;;5084365;28;20125;-43
2022/08/05 02:26:51;;;;;;;3.92;2.72;;;20.40;99.90;;;;;;5103512;28;20063;-43
2022/08/05 02:29:21;;;;;;;4.38;1.80;;;20.50;99.90;;;;;;5106696;28;20028;-43
2022/08/05 02:31:49;;;;;;;4.30;2.15;;;20.50;99.90;;;;;;5105954;28;20023;-44
2022/08/05 02:34:18;;;;;;;4.43;2.25;;;20.50;99.90;;;;;;5105033;28;20076;-44
2022/08/05 02:36:49;;;;;;;2.28;1.50;;;20.50;99.90;;;;;;5099483;28;20036;-44
2022/08/05 02:39:16;;;;;;;3.17;1.80;;;20.50;99.90;;;;;;5107269;28;20035;-44
2022/08/05 02:41:44;;;;;;;3.90;1.58;;;20.50;99.90;;;;;;5106233;28;20067;-45
2022/08/05 02:44:11;;;;;;;2.10;1.60;;;20.50;99.90;;;;;;5106078;28;20034;-43
2022/08/05 02:46:38;;;;;;;4.45;1.92;;;20.50;99.90;;;;;;5106037;28;20037;-43
2022/08/05 02:49:05;;;;;;;2.38;1.65;;;20.50;99.90;;;;;;5106101;28;20024;-43
2022/08/05 02:51:32;;;;;;;2.53;1.90;;;20.50;99.90;;;;;;5105356;28;20041;-44
2022/08/05 02:53:59;;;;;;;2.55;1.83;;;20.50;99.90;;;;;;5106543;28;20023;-44
2022/08/05 02:56:26;;;;;;;2.72;1.60;;;20.40;99.90;;;;;;5105283;28;20114;-43
2022/08/05 02:58:52;;;;;;;3.20;1.88;;;20.40;99.90;;;;;;5106205;28;20023;-44
2022/08/05 03:01:24;;;;;;;4.50;1.92;;;20.30;99.90;;;;;;5105966;28;20081;-43
2022/08/05 03:03:53;;;;;;;3.60;1.80;;;20.30;99.90;;;;;;5105764;28;20076;-44
2022/08/05 03:06:21;;;;;;;2.97;1.65;;;20.20;99.90;;;;;;5106674;28;20115;-44
2022/08/05 03:08:49;;;;;;;3.20;1.70;;;20.20;99.90;;;;;;5106368;28;20020;-44
2022/08/05 03:11:17;;;;;;;3.15;2.00;;;20.20;99.90;;;;;;5105734;28;20062;-44
2022/08/05 03:13:43;;;;;;;2.40;1.50;;;20.20;99.90;;;;;;5104775;28;20031;-43
2022/08/05 03:16:09;;;;;;;3.78;1.60;;;20.20;99.90;;;;;;5106398;28;20028;-44
2022/08/05 03:18:34;;;;;;;3.92;1.90;;;20.20;99.90;;;;;;5105661;28;20023;-45
2022/08/05 03:21:00;;;;;;;2.83;1.80;;;20.20;99.90;;;;;;5106549;28;20522;-43
2022/08/05 03:23:26;;;;;;;2.40;1.70;;;20.20;99.90;;;;;;5106134;28;20530;-43
2022/08/05 03:25:52;;;;;;;3.35;1.60;;;20.20;99.90;;;;;;5105423;28;20019;-44
2022/08/05 03:28:18;;;;;;;3.10;1.70;;;20.20;99.90;;;;;;5105594;28;20570;-43
2022/08/05 03:30:45;;;;;;;2.88;1.60;;;20.20;99.90;;;;;;5105576;28;20415;-44
2022/08/05 03:33:10;;;;;;;2.55;1.60;;;20.30;99.90;;;;;;5105271;28;20084;-43
2022/08/05 03:35:37;;;;;;;1.50;1.40;;;20.30;99.90;;;;;;5105829;28;20043;-44
2022/08/05 03:38:02;;;;;;;2.20;1.80;;;20.30;99.90;;;;;;5106082;28;20024;-43
2022/08/05 03:40:28;;;;;;;2.20;1.30;;;20.20;99.90;;;;;;5105149;28;20023;-43
2022/08/05 03:42:54;;;;;;;3.05;1.77;;;20.30;99.90;;;;;;5105434;28;20039;-43
2022/08/05 03:45:20;;;;;;;3.25;1.75;;;20.30;99.90;;;;;;5106322;28;20082;-43
2022/08/05 03:47:45;;;;;;;2.17;1.77;;;20.30;99.90;;;;;;5104537;28;20031;-43
2022/08/05 03:50:11;;;;;;;3.38;1.70;;;20.30;99.90;;;;;;5105697;28;20064;-44
2022/08/05 03:52:43;;;;;;;2.83;1.63;;;20.30;99.90;;;;;;5105298;28;20047;-44
2022/08/05 03:55:13;;;;;;;6.20;1.83;;;20.30;99.90;;;;;;5105157;28;20062;-44
2022/08/05 03:57:41;;;;;;;2.50;1.88;;;20.20;99.90;;;;;;5105622;28;20077;-44
2022/08/05 04:00:13;;;;;;;3.67;1.85;;;20.20;99.90;;;;;;5104866;28;20027;-43
2022/08/05 04:02:41;;;;;;;3.03;1.73;;;20.20;99.90;;;;;;5105651;28;20023;-43
2022/08/05 04:05:08;;;;;;;3.60;1.80;;;20.10;99.90;;;;;;5105117;28;20375;-44
2022/08/05 04:07:34;;;;;;;3.03;1.80;;;20.10;99.90;;;;;;5105094;28;20023;-44
2022/08/05 04:10:00;;;;;;;2.33;1.50;;;20.10;99.90;;;;;;5105563;28;20059;-43
2022/08/05 04:12:27;;;;;;;2.78;1.80;;;20.10;99.90;;;;;;5107066;28;20088;-44
2022/08/05 04:14:53;;;;;;;2.92;1.58;;;20.00;99.90;;;;;;5108593;28;20027;-44
2022/08/05 04:17:18;;;;;;;4.30;1.90;;;20.00;99.90;;;;;;5109899;28;20043;-44
2022/08/05 04:19:45;;;;;;;2.22;1.45;;;19.90;99.90;;;;;;5108809;28;20537;-44
2022/08/05 04:22:11;;;;;;;3.13;1.70;;;19.90;99.90;;;;;;5108887;28;20019;-45
2022/08/05 04:24:39;;;;;;;4.22;1.95;;;19.90;99.90;;;;;;5109032;28;20035;-44
2022/08/05 04:27:04;;;;;;;4.47;2.20;;;19.90;99.90;;;;;;5109015;28;20499;-43
2022/08/05 04:29:30;;;;;;;4.20;1.60;;;19.90;99.90;;;;;;5108264;28;20011;-44
2022/08/05 04:31:55;;;;;;;3.40;1.83;;;19.90;99.90;;;;;;5109161;28;20077;-45
2022/08/05 04:34:21;;;;;;;4.28;1.92;;;19.80;99.90;;;;;;5109451;28;20027;-43
2022/08/05 04:36:46;;;;;;;4.95;1.80;;;19.80;99.90;;;;;;5108107;28;20127;-44
2022/08/05 04:39:12;;;;;;;2.55;1.70;;;19.80;99.90;;;;;;5109393;28;20104;-43
2022/08/05 04:41:38;;;;;;;1.63;1.52;;;19.80;99.90;;;;;;5109458;28;20080;-43
2022/08/05 04:44:03;;;;;;;2.97;1.50;;;19.70;99.90;;;;;;5108472;28;20487;-44
2022/08/05 04:46:29;;;;;;;3.65;1.90;;;19.70;99.90;;;;;;5108903;28;20058;-44
2022/08/05 04:48:54;;;;;;;3.15;2.08;;;19.70;99.90;;;;;;5108594;28;20028;-44
2022/08/05 04:51:20;;;;;;;3.08;1.42;;;19.70;99.90;;;;;;5109289;28;20020;-43
2022/08/05 04:53:45;;;;;;;3.08;1.70;;;19.70;99.90;;;;;;5108760;28;20103;-43
2022/08/05 04:56:11;;;;;;;5.47;1.70;;;19.70;99.90;;;;;;5108521;28;20723;-43
2022/08/05 04:58:36;;;;;;;4.68;1.80;;;19.80;99.90;;;;;;5109543;28;20027;-44
2022/08/05 05:01:02;;;;;;;3.35;2.17;;;19.70;99.90;;;;;;5108825;28;20027;-43
2022/08/05 05:03:28;;;;;;;2.88;1.50;;;19.70;99.90;;;;;;5108145;28;20077;-43
2022/08/05 05:05:53;;;;;;;3.47;1.90;;;19.70;99.90;;;;;;5108760;28;20050;-44
2022/08/05 05:08:19;;;;;;;4.10;2.00;;;19.70;99.90;;;;;;5109001;28;20030;-44
2022/08/05 05:10:46;;;;;;;3.13;1.67;;;19.70;99.90;;;;;;5107599;28;20031;-44
2022/08/05 05:13:14;;;;;;;2.90;1.60;;;19.80;99.90;;;;;;5108821;28;20020;-44
2022/08/05 05:15:40;;;;;;;2.13;1.40;;;19.80;99.90;;;;;;5108262;28;20425;-44
2022/08/05 05:18:06;;;;;;;3.42;1.83;;;19.80;99.90;;;;;;5107820;28;20023;-44
2022/08/05 05:20:32;;;;;;;3.88;1.55;;;19.80;99.90;;;;;;5108348;28;20527;-43
2022/08/05 05:22:59;;;;;;;5.85;2.05;;;19.80;99.90;;;;;;5107651;28;20012;-43
2022/08/05 05:25:25;;;;;;;2.78;1.75;;;19.80;99.90;;;;;;5107484;28;20027;-44
2022/08/05 05:27:51;;;;;;;2.38;1.48;;;19.80;99.90;;;;;;5108078;28;20815;-43
2022/08/05 05:30:17;;;;;;;4.28;1.88;;;19.80;99.90;;;;;;5108545;28;20032;-43
2022/08/05 05:32:42;;;;;;;2.88;1.70;;;19.80;99.90;;;;;;5107355;28;20076;-44
2022/08/05 05:35:08;;;;;;;1.67;1.30;;;19.70;99.90;;;;;;5107874;28;20032;-43
2022/08/05 05:37:44;;;;;;;2.88;1.63;;;19.80;99.90;;;;;;5107222;28;20082;-44
2022/08/05 05:40:13;;;;;;;3.80;1.60;;;19.80;99.90;;;;;;5107537;28;20066;-44
2022/08/05 05:42:39;;;;;;;2.63;1.60;;;19.80;99.90;;;;;;5107993;28;20072;-44
2022/08/05 05:45:05;;;;;;;2.58;1.40;;;19.80;99.90;;;;;;5106941;28;20020;-41
2022/08/05 05:47:31;;;;;;;4.90;2.03;;;19.90;99.90;;;;;;5107309;28;20031;-43
2022/08/05 05:49:56;;;;;;;4.80;1.90;;;19.90;99.90;;;;;;5107701;28;20038;-43
2022/08/05 05:52:23;;;;;;;3.47;1.63;;;19.90;99.90;;;;;;5107110;28;20456;-43
2022/08/05 05:54:48;;;;;;;4.20;1.70;;;19.90;99.90;;;;;;5107470;28;20035;-34
2022/08/05 05:57:14;;;;;;;2.13;1.50;;;19.90;99.90;;;;;;5107555;28;20057;-35
2022/08/05 05:59:39;;;;;;;2.22;1.50;;;19.90;99.90;;;;;;5106947;28;20030;-34
2022/08/05 06:02:05;;;;;;;2.50;1.70;;;19.80;99.90;;;;;;5107146;28;20032;-35
2022/08/05 06:04:31;;;;;;;3.05;1.83;;;19.80;99.90;;;;;;5107381;28;20032;-35
2022/08/05 06:06:56;;;;;;;2.55;1.60;;;19.90;99.90;;;;;;5105722;28;20024;-35
2022/08/05 06:09:22;;;;;;;3.85;1.60;;;19.90;99.90;;;;;;5105532;28;20147;-35
2022/08/05 06:11:47;;;;;;;2.35;1.60;;;19.90;99.90;;;;;;5106323;28;20031;-35
2022/08/05 06:14:13;;;;;;;2.10;1.45;;;20.00;99.90;;;;;;5105632;28;20019;-36
2022/08/05 06:16:39;;;;;;;2.25;1.48;;;20.00;99.90;;;;;;5106176;28;20525;-35
2022/08/05 06:19:04;;;;;;;3.70;1.73;;;20.00;99.90;;;;;;5106244;28;20577;-34
2022/08/05 06:21:31;;;;;;;2.58;1.60;;;20.00;99.90;;;;;;5105621;28;20109;-34
2022/08/05 06:23:57;;;;;;;3.63;2.15;;;20.00;99.90;;;;;;5105859;28;20468;-34
2022/08/05 06:26:23;;;;;;;3.28;1.85;;;20.00;99.90;;;;;;5106428;28;20023;-36
2022/08/05 06:28:48;;;;;;;2.20;1.48;;;20.00;99.90;;;;;;5105140;28;20020;-35
2022/08/05 06:31:14;;;;;;;2.92;1.73;;;20.10;99.90;;;;;;5106816;28;20027;-36
2022/08/05 06:33:40;;;;;;;2.50;1.55;;;20.10;99.90;;;;;;5106027;28;20028;-36
2022/08/05 06:36:05;;;;;;;2.50;1.35;;;20.20;99.90;;;;;;5105459;28;20043;-35
2022/08/05 06:38:31;;;;;;;2.72;1.73;;;20.20;99.90;;;;;;5105145;28;20045;-35
2022/08/05 06:40:57;;;;;;;4.47;1.58;;;20.20;99.90;;;;;;5105938;28;20023;-36
2022/08/05 06:43:22;;;;;;;2.70;1.40;;;20.20;99.90;;;;;;5105059;28;20024;-34
2022/08/05 06:45:48;;;;;;;3.08;1.50;;;20.10;99.90;;;;;;5105316;28;20044;-36
2022/08/05 06:48:13;;;;;;;4.22;1.70;;;20.10;99.90;;;;;;5107189;28;20099;-35
2022/08/05 06:50:39;;;;;;;3.08;1.60;;;20.10;99.90;;;;;;5105066;28;20054;-35
2022/08/05 06:53:04;;;;;;;2.15;1.20;;;20.10;99.90;;;;;;5106789;28;20020;-34
2022/08/05 06:55:30;;;;;;;2.83;1.50;;;20.20;99.90;;;;;;5105640;28;20071;-35
2022/08/05 06:57:55;;;;;;;2.38;1.20;;;20.20;99.90;;;;;;5102328;27;20047;-34
2022/08/05 07:00:21;;;;;;;3.28;1.40;;;20.20;99.90;;;;;;5104784;28;20109;-37
2022/08/05 07:02:46;;;;;;;3.65;1.50;;;20.20;99.90;;;;;;5104681;28;20028;-36
2022/08/05 07:05:12;;;;;;;4.32;1.60;;;20.20;99.90;;;;;;5106215;28;20008;-35
2022/08/05 07:07:39;;;;;;;3.58;1.30;;;20.20;99.90;;;;;;5106044;28;20418;-37
2022/08/05 07:10:06;;;;;;;1.83;1.13;;;20.30;99.90;;;;;;5105786;28;20027;-36
2022/08/05 07:18:01;;;;;;;1.83;1.23;;;20.50;99.90;;;;;;5105706;28;20042;-33
2022/08/05 07:20:26;;;;;;;2.20;1.30;;;20.50;99.90;;;;;;5105359;28;20020;-36
2022/08/05 07:22:52;;;;;;;4.00;1.38;;;20.50;99.90;;;;;;5105407;28;20027;-34
2022/08/05 07:25:17;;;;;;;3.75;1.30;;;20.50;99.90;;;;;;5105582;28;20031;-35
2022/08/05 07:27:43;;;;;;;2.13;1.10;;;20.60;99.90;;;;;;5105050;28;20055;-35
2022/08/05 07:30:10;;;;;;;2.50;1.40;;;20.60;99.90;;;;;;5106125;28;20058;-36
2022/08/05 07:32:36;;;;;;;3.15;1.33;;;20.60;99.90;;;;;;5104838;28;20360;-35
2022/08/05 07:35:07;;;;;;;3.47;1.00;;;20.70;99.90;;;;;;5105066;28;20540;-35
2022/08/05 07:37:32;;;;;;;3.05;1.10;;;20.70;99.90;;;;;;5104502;28;20495;-34
2022/08/05 07:39:58;;;;;;;2.30;1.20;;;20.70;99.90;;;;;;5104843;28;20023;-35
2022/08/05 07:42:23;;;;;;;1.08;0.98;;;20.70;99.90;;;;;;5105267;28;20502;-34
2022/08/05 07:44:49;;;;;;;2.03;1.30;;;20.70;99.90;;;;;;5104765;28;20019;-36
2022/08/05 07:47:14;;;;;;;3.70;1.08;;;20.80;99.90;;;;;;5107879;28;20032;-35
2022/08/05 07:49:40;;;;;;;3.20;1.10;;;20.90;99.90;;;;;;5110229;28;20028;-34
2022/08/05 07:52:05;;;;;;;1.98;1.02;;;20.90;99.90;;;;;;5109518;28;20028;-36
2022/08/05 07:54:31;;;;;;;2.30;0.90;;;21.00;99.90;;;;;;5109388;28;20076;-35
2022/08/05 07:56:56;;;;;;;1.20;1.00;;;21.10;99.90;;;;;;5109521;28;20745;-37
2022/08/05 07:59:22;;;;;;;2.30;1.00;;;21.10;99.90;;;;;;5110138;28;20047;-36
2022/08/05 08:01:47;;;;;;;2.00;0.95;;;21.20;99.90;;;;;;5109298;28;20503;-35
2022/08/05 08:04:13;;;;;;;2.40;1.40;;;21.30;99.90;;;;;;5109771;28;20026;-37
2022/08/05 08:06:38;;;;;;;1.80;0.90;;;21.30;99.90;;;;;;5109207;28;20418;-36
2022/08/05 08:09:04;;;;;;;1.35;0.88;;;21.40;99.60;;;;;;5110056;28;20454;-35
2022/08/05 08:11:30;;;;;;;2.13;0.88;;;21.40;99.30;;;;;;5109349;28;20157;-35
2022/08/05 08:13:55;;;;;;;1.33;0.90;;;21.50;99.30;;;;;;5108184;28;20016;-34
2022/08/05 08:16:21;;;;;;;1.20;0.90;;;21.50;99.30;;;;;;5109911;28;20078;-37
2022/08/05 08:18:47;;;;;;;1.27;0.90;;;21.60;99.30;;;;;;5109351;28;20016;-34
2022/08/05 08:21:12;;;;;;;3.08;1.30;;;21.60;99.30;;;;;;5108686;28;20889;-34
2022/08/05 08:23:38;;;;;;;1.88;0.82;;;21.70;98.50;;;;;;5109246;28;20020;-33
2022/08/05 08:26:03;;;;;;;1.25;0.88;;;21.70;98.50;;;;;;5109186;28;20777;-36
2022/08/05 08:28:29;;;;;;;1.67;0.80;;;21.70;98.70;;;;;;5107117;28;20494;-35
2022/08/05 08:30:55;;;;;;;1.75;0.90;;;21.70;98.70;;;;;;5109387;28;20058;-37
2022/08/05 08:33:20;;;;;;;1.38;0.80;;;21.70;98.60;;;;;;5109670;28;20372;-35
2022/08/05 08:35:46;;;;;;;2.30;0.90;;;21.80;98.70;;;;;;5107979;28;20525;-36
2022/08/05 08:38:14;;;;;;;1.17;0.80;;;21.90;98.60;;;;;;5110076;28;20047;-36
2022/08/05 08:40:39;;;;;;;1.67;1.00;;;21.90;98.20;;;;;;5109051;28;20023;-35
2022/08/05 08:43:05;;;;;;;2.97;1.10;;;21.90;97.80;;;;;;5108245;28;20375;-36
2022/08/05 08:45:32;;;;;;;1.80;0.80;;;21.90;97.50;;;;;;5107323;28;20028;-35
2022/08/05 08:48:03;;;;;;;2.33;0.90;;;21.90;97.40;;;;;;5108388;28;20117;-35
2022/08/05 08:50:30;;;;;;;1.88;0.90;;;21.90;97.40;;;;;;5108983;28;20106;-37
2022/08/05 08:53:02;;;;;;;2.55;0.98;;;22.00;97.60;;;;;;5109128;28;20023;-35
2022/08/05 08:55:27;;;;;;;1.48;0.90;;;22.00;97.70;;;;;;5108051;28;20139;-36
2022/08/05 08:57:53;;;;;;;1.95;0.90;;;22.00;97.50;;;;;;5107827;28;20040;-36
2022/08/05 09:00:19;;;;;;;1.98;0.80;;;21.90;97.60;;;;;;5109014;28;20011;-36
2022/08/05 09:02:45;;;;;;;1.60;0.93;;;21.90;97.70;;;;;;5108650;28;20019;-36
2022/08/05 09:05:11;;;;;;;0.80;0.80;;;21.90;97.80;;;;;;5108553;28;20024;-35
2022/08/05 09:07:37;;;;;;;2.70;1.08;;;21.80;97.30;;;;;;5109172;28;20024;-37
2022/08/05 09:10:03;;;;;;;2.05;0.93;;;21.70;96.90;;;;;;5105673;28;20566;-36
2022/08/05 09:12:29;;;;;;;2.47;1.00;;;21.70;96.70;;;;;;5107766;28;20023;-36
2022/08/05 09:14:55;;;;;;;2.10;0.90;;;21.60;96.40;;;;;;5107518;28;20546;-35
2022/08/05 09:17:20;;;;;;;2.63;1.15;;;21.50;96.60;;;;;;5107021;28;20411;-35
2022/08/05 09:19:46;;;;;;;0.95;0.70;;;21.50;96.40;;;;;;5107182;28;20030;-34
2022/08/05 09:22:11;;;;;;;2.80;0.73;;;21.60;96.50;;;;;;5107719;28;20924;-34
2022/08/05 09:24:37;;;;;;;1.40;0.70;;;21.70;96.30;;;;;;5106269;28;20016;-35
2022/08/05 09:27:07;;;;;;;0.68;0.50;;;21.90;96.10;;;;;;5107566;28;20043;-36
2022/08/05 09:29:41;;;;;;;0.70;0.50;;;22.10;95.70;;;;;;5106983;28;20026;-34
2022/08/05 09:32:08;;;;;;;1.23;0.50;;;22.30;94.50;;;;;;5106754;28;20023;-36
2022/08/05 09:34:52;;;;;;;0.90;0.50;;;22.40;93.40;;;;;;5106995;28;20072;-34
2022/08/05 09:37:20;;;;;;;0.73;0.40;;;22.40;92.10;;;;;;5097348;28;20104;-35
2022/08/05 09:39:45;;;;;;;0.63;0.25;;;22.40;92.80;;;;;;5106846;28;20019;-36
2022/08/05 09:42:14;;;;;;;0.65;0.40;;;22.50;92.50;;;;;;5107465;28;20432;-35
2022/08/05 09:44:43;;;;;;;0.57;0.32;;;22.40;91.90;;;;;;5106159;28;20026;-35
2022/08/05 09:47:15;;;;;;;0.65;0.40;;;22.40;92.30;;;;;;5107974;28;20020;-35
2022/08/05 09:49:43;;;;;;;0.93;0.50;;;22.40;90.70;;;;;;5107238;28;20081;-35
2022/08/05 09:52:30;;;;;;;1.05;0.40;;;22.30;91.60;;;;;;5103369;28;20379;-35
2022/08/05 09:55:00;;;;;;;0.77;0.38;;;22.50;91.70;;;;;;5106863;28;20038;-36
2022/08/05 09:57:31;;;;;;;0.85;0.50;;;22.60;91.10;;;;;;5107450;28;20031;-36
2022/08/05 10:00:03;;;;;;;1.83;0.57;;;22.70;90.80;;;;;;5106535;28;20115;-35
2022/08/05 10:02:38;;;;;;;0.50;0.40;;;22.80;89.50;;;;;;5106222;28;20451;-34
2022/08/05 10:05:09;;;;;;;1.42;0.45;;;22.70;87.60;;;;;;5107452;28;20102;-36
2022/08/05 10:07:54;;;;;;;1.65;0.40;;;22.60;87.80;;;;;;5105417;28;20020;-35
2022/08/05 10:10:31;;;;;;;1.42;0.50;;;22.50;89.00;;;;;;5107002;28;20024;-36
2022/08/05 10:13:03;;;;;;;0.80;0.40;;;22.40;88.90;;;;;;5104143;28;20036;-34
2022/08/05 10:15:33;;;;;;;0.40;0.30;;;22.40;89.00;;;;;;5106559;28;20026;-34
2022/08/05 10:18:04;;;;;;;1.70;0.40;;;22.40;87.00;;;;;;5106664;28;20768;-35
2022/08/05 10:20:31;;;;;;;0.93;0.40;;;22.40;87.10;;;;;;5106125;28;20218;-35
2022/08/05 10:22:58;;;;;;;1.17;0.32;;;22.60;86.30;;;;;;5106638;28;20092;-34
2022/08/05 10:25:24;;;;;;;2.08;0.40;;;22.70;86.90;;;;;;5106555;28;20088;-34
2022/08/05 10:27:51;;;;;;;0.43;0.40;;;22.70;82.30;;;;;;5105830;28;20055;-35
2022/08/05 10:30:17;;;;;;;0.55;0.30;;;22.80;84.10;;;;;;5107459;28;20548;-35
2022/08/05 10:32:43;;;;;;;1.90;0.50;;;22.90;83.70;;;;;;5106177;28;20024;-35
2022/08/05 10:35:09;;;;;;;0.88;0.50;;;23.00;83.20;;;;;;5105856;28;20016;-35
2022/08/05 10:37:35;;;;;;;1.35;0.50;;;23.00;82.90;;;;;;5105974;28;20035;-33
2022/08/05 10:40:05;;;;;;;0.75;0.35;;;23.10;80.60;;;;;;5106267;28;20024;-36
2022/08/05 10:42:37;;;;;;;1.42;0.40;;;23.00;78.30;;;;;;5105377;28;20027;-35
2022/08/05 10:45:06;;;;;;;0.90;0.73;;;23.00;77.00;;;;;;5106224;28;20019;-35
2022/08/05 10:47:35;;;;;;;1.48;0.40;;;22.90;77.40;;;;;;5105626;28;20023;-35
2022/08/05 10:50:11;;;;;;;0.52;0.35;;;22.90;77.40;;;;;;5106713;28;20038;-36
2022/08/05 10:52:40;;;;;;;1.52;0.38;;;22.80;77.80;;;;;;5106411;28;20016;-36
2022/08/05 10:55:12;;;;;;;2.10;0.50;;;22.70;77.70;;;;;;5103955;28;20493;-34
2022/08/05 10:57:40;;;;;;;1.20;0.65;;;22.60;78.20;;;;;;5104254;28;20063;-35
2022/08/05 11:00:11;;;;;;;0.82;0.50;;;22.60;79.00;;;;;;5105097;28;20051;-36
2022/08/05 11:02:37;;;;;;;1.75;0.82;;;22.60;78.50;;;;;;5104774;28;20016;-35
2022/08/05 11:05:07;;;;;;;0.95;0.40;;;22.60;78.50;;;;;;5105448;28;20072;-34
2022/08/05 11:07:33;;;;;;;3.00;0.47;;;22.60;77.40;;;;;;5104970;28;20054;-35
2022/08/05 11:10:01;;;;;;;0.73;0.22;;;22.70;77.20;;;;;;5104991;28;20436;-35
2022/08/05 11:12:41;;;;;;;3.15;0.50;;;22.70;76.80;;;;;;5105545;28;20019;-35
2022/08/05 11:15:15;;;;;;;1.20;0.52;;;22.90;74.30;;;;;;5102965;28;20402;-34
2022/08/05 11:17:43;;;;;;;2.80;0.47;;;23.10;72.10;;;;;;5103921;28;20040;-34
2022/08/05 11:20:37;;;;;;;0.63;0.30;;;23.10;71.40;;;;;;5105648;28;20103;-35
2022/08/05 11:23:30;;;;;;;1.00;0.40;;;23.20;72.20;;;;;;5104521;28;20032;-35
2022/08/05 11:26:22;;;;;;;0.98;0.40;;;23.20;72.50;;;;;;5095727;28;20032;-35
2022/08/05 11:28:51;;;;;;;0.50;0.30;;;23.40;72.20;;;;;;5091036;28;20503;-36
2022/08/05 11:31:19;;;;;;;0.88;0.30;;;23.40;72.40;;;;;;5104514;28;20692;-35
2022/08/05 11:33:44;;;;;;;1.08;0.40;;;23.40;72.30;;;;;;5104629;28;20494;-35
2022/08/05 11:36:12;;;;;;;0.60;0.40;;;23.50;70.30;;;;;;5104947;28;20032;-35
2022/08/05 11:38:38;;;;;;;0.95;0.60;;;23.50;70.90;;;;;;5103963;28;20102;-35
2022/08/05 11:41:22;;;;;;;0.95;0.38;;;23.40;69.10;;;;;;5104592;28;20110;-34
2022/08/05 11:44:03;;;;;;;1.20;0.47;;;23.40;69.90;;;;;;5104033;28;20062;-34
2022/08/05 11:46:40;;;;;;;0.70;0.30;;;23.40;69.90;;;;;;5095181;28;20035;-35
2022/08/05 11:49:09;;;;;;;0.70;0.40;;;23.50;67.80;;;;;;5105602;28;20055;-35
2022/08/05 11:51:35;;;;;;;0.65;0.45;;;23.50;69.00;;;;;;5094178;28;20329;-35
2022/08/05 11:54:01;;;;;;;0.93;0.50;;;23.50;69.50;;;;;;5105428;28;20497;-35
2022/08/05 11:56:52;;;;;;;0.80;0.50;;;23.60;68.90;;;;;;5105371;28;20044;-36
2022/08/05 11:59:24;;;;;;;0.30;0.30;;;23.60;69.80;;;;;;5105390;28;20036;-35
2022/08/05 12:02:04;;;;;;;0.73;0.40;;;23.70;69.90;;;;;;5105536;28;20023;-36
2022/08/05 12:04:48;;;;;;;0.65;0.32;;;23.80;68.80;;;;;;5105157;28;20098;-35
2022/08/05 12:07:16;;;;;;;1.25;0.40;;;23.80;68.80;;;;;;5095203;28;20112;-35
2022/08/05 12:09:53;;;;;;;0.57;0.30;;;23.90;66.60;;;;;;5104565;28;20548;-34
2022/08/05 12:12:23;;;;;;;0.80;0.40;;;23.90;67.60;;;;;;5093931;28;20038;-35
2022/08/05 12:14:49;;;;;;;0.32;0.30;;;24.00;66.70;;;;;;5104467;28;20020;-34
2022/08/05 12:17:15;;;;;;;0.90;0.40;;;24.00;65.10;;;;;;5105367;28;20038;-35
2022/08/05 12:19:48;;;;;;;2.22;0.35;;;23.90;64.40;;;;;;5104395;28;20063;-34
2022/08/05 12:22:15;;;;;;;1.23;0.35;;;23.80;63.40;;;;;;5102410;28;20048;-35
2022/08/05 12:24:43;;;;;;;1.13;0.20;;;23.70;62.80;;;;;;5105009;28;20031;-35
2022/08/05 12:27:09;;;;;;;0.63;0.45;;;23.50;63.70;;;;;;5104610;28;20535;-36
2022/08/05 12:29:35;;;;;;;0.40;0.32;;;23.50;62.80;;;;;;5104575;28;20028;-33
2022/08/05 12:32:01;;;;;;;0.57;0.30;;;23.40;62.40;;;;;;5102936;28;20032;-34
2022/08/05 12:34:30;;;;;;;0.47;0.30;;;23.30;62.50;;;;;;5106908;28;20031;-35
2022/08/05 12:36:58;;;;;;;0.68;0.40;;;23.20;62.90;;;;;;5109014;28;20056;-35
2022/08/05 12:39:25;;;;;;;1.27;0.20;;;23.20;62.90;;;;;;5108545;28;20402;-34
2022/08/05 12:41:59;;;;;;;0.73;0.30;;;23.20;63.40;;;;;;5107960;28;20042;-35
2022/08/05 12:44:25;;;;;;;0.63;0.32;;;23.20;64.10;;;;;;5108691;28;20018;-33
2022/08/05 12:46:53;;;;;;;2.33;0.50;;;23.30;63.80;;;;;;5108215;28;20116;-33
2022/08/05 12:49:19;;;;;;;4.60;0.82;;;23.30;63.90;;;;;;5108286;28;20035;-35
2022/08/05 12:51:48;;;;;;;1.60;0.63;;;23.30;64.00;;;;;;5107982;28;20487;-35
2022/08/05 12:54:25;;;;;;;1.38;0.38;;;23.30;64.30;;;;;;5107993;28;20023;-35
2022/08/05 12:56:56;;;;;;;1.02;0.40;;;23.40;63.70;;;;;;5107813;28;20035;-34
2022/08/05 12:59:23;;;;;;;0.80;0.40;;;23.30;63.90;;;;;;5108781;28;20024;-34